createdAt,value
2022-09-24T00:01:16.173Z,100.00
2022-09-24T00:03:46.855Z,100.00
2022-09-24T00:06:15.318Z,100.00
2022-09-24T00:08:43.469Z,100.00
2022-09-24T00:11:14.548Z,100.00
2022-09-24T00:13:44.502Z,100.00
2022-09-24T00:16:15.544Z,100.00
2022-09-24T00:18:44.877Z,100.00
2022-09-24T00:21:15.543Z,100.00
2022-09-24T00:23:44.389Z,100.00
2022-09-24T00:26:30.792Z,100.00
2022-09-24T00:29:01.115Z,100.00
2022-09-24T00:31:30.281Z,100.00
2022-09-24T00:33:59.704Z,100.00
2022-09-24T00:36:28.893Z,100.00
2022-09-24T00:38:59.827Z,100.00
2022-09-24T00:41:30.717Z,100.00
2022-09-24T00:44:01.926Z,100.00
2022-09-24T00:46:34.565Z,100.00
2022-09-24T00:49:14.708Z,100.00
2022-09-24T00:51:47.206Z,100.00
2022-09-24T00:54:20.961Z,100.00
2022-09-24T00:56:52.037Z,100.00
2022-09-24T00:59:25.536Z,100.00
2022-09-24T01:01:59.559Z,100.00
2022-09-24T01:04:30.144Z,100.00
2022-09-24T01:07:00.692Z,100.00
2022-09-24T01:09:33.143Z,100.00
2022-09-24T01:12:11.621Z,100.00
2022-09-24T01:15:00.326Z,100.00
2022-09-24T01:17:38.727Z,100.00
2022-09-24T01:20:37.795Z,100.00
2022-09-24T01:23:29.579Z,100.00
2022-09-24T01:26:20.231Z,100.00
2022-09-24T01:29:06.830Z,100.00
2022-09-24T01:31:44.766Z,100.00
2022-09-24T01:34:24.428Z,100.00
2022-09-24T01:36:55.574Z,100.00
2022-09-24T01:39:26.127Z,100.00
2022-09-24T01:41:57.496Z,100.00
2022-09-24T01:44:26.252Z,100.00
2022-09-24T01:46:59.606Z,100.00
2022-09-24T01:49:28.532Z,100.00
2022-09-24T01:52:01.678Z,100.00
2022-09-24T01:54:36.226Z,100.00
2022-09-24T01:57:11.115Z,100.00
2022-09-24T01:59:45.092Z,100.00
2022-09-24T02:02:20.651Z,100.00
2022-09-24T02:04:55.138Z,100.00
2022-09-24T02:07:28.810Z,100.00
2022-09-24T02:09:57.217Z,100.00
2022-09-24T02:12:29.874Z,100.00
2022-09-24T02:15:03.750Z,100.00
2022-09-24T02:17:38.536Z,100.00
2022-09-24T02:20:14.943Z,100.00
2022-09-24T02:22:45.914Z,100.00
2022-09-24T02:25:21.483Z,100.00
2022-09-24T02:27:50.364Z,100.00
2022-09-24T02:30:19.109Z,100.00
2022-09-24T02:32:51.214Z,100.00
2022-09-24T02:35:20.216Z,100.00
2022-09-24T02:37:50.221Z,100.00
2022-09-24T02:40:18.735Z,100.00
2022-09-24T02:42:50.862Z,100.00
2022-09-24T02:45:19.252Z,100.00
2022-09-24T02:47:49.172Z,100.00
2022-09-24T02:50:17.716Z,100.00
2022-09-24T02:52:46.118Z,100.00
2022-09-24T02:55:14.378Z,100.00
2022-09-24T02:57:42.488Z,100.00
2022-09-24T03:00:12.575Z,100.00
2022-09-24T03:02:41.869Z,100.00
2022-09-24T03:05:11.765Z,100.00
2022-09-24T03:07:41.739Z,100.00
2022-09-24T03:10:11.167Z,100.00
2022-09-24T03:12:39.321Z,100.00
2022-09-24T03:15:08.241Z,100.00
2022-09-24T03:17:37.036Z,100.00
2022-09-24T03:20:06.143Z,100.00
2022-09-24T03:22:36.278Z,100.00
2022-09-24T03:25:05.208Z,100.00
2022-09-24T03:27:34.403Z,100.00
2022-09-24T03:30:20.305Z,100.00
2022-09-24T03:32:49.889Z,100.00
2022-09-24T03:35:18.329Z,100.00
2022-09-24T03:37:50.621Z,100.00
2022-09-24T03:40:19.267Z,100.00
2022-09-24T03:42:47.712Z,100.00
2022-09-24T03:45:17.077Z,100.00
2022-09-24T03:47:45.535Z,100.00
2022-09-24T03:50:13.954Z,100.00
2022-09-24T03:52:42.717Z,100.00
2022-09-24T03:55:13.548Z,100.00
2022-09-24T03:57:41.971Z,100.00
2022-09-24T04:00:11.904Z,100.00
2022-09-24T04:02:41.285Z,100.00
2022-09-24T04:05:10.401Z,100.00
2022-09-24T04:07:39.125Z,100.00
2022-09-24T04:10:09.104Z,100.00
2022-09-24T04:12:38.836Z,100.00
2022-09-24T04:15:08.271Z,100.00
2022-09-24T04:17:39.076Z,100.00
2022-09-24T04:20:09.239Z,100.00
2022-09-24T04:22:37.859Z,100.00
2022-09-24T04:25:09.221Z,100.00
2022-09-24T04:27:42.593Z,100.00
2022-09-24T04:30:13.110Z,100.00
2022-09-24T04:32:41.456Z,100.00
2022-09-24T04:35:11.007Z,100.00
2022-09-24T04:37:39.669Z,100.00
2022-09-24T04:40:12.758Z,100.00
2022-09-24T04:42:43.215Z,100.00
2022-09-24T04:45:12.454Z,100.00
2022-09-24T04:47:42.182Z,100.00
2022-09-24T04:50:13.683Z,100.00
2022-09-24T04:52:42.110Z,100.00
2022-09-24T04:55:11.088Z,100.00
2022-09-24T04:57:42.146Z,100.00
2022-09-24T05:00:17.675Z,100.00
2022-09-24T05:02:47.084Z,100.00
2022-09-24T05:05:16.635Z,100.00
2022-09-24T05:07:47.809Z,100.00
2022-09-24T05:10:16.126Z,100.00
2022-09-24T05:12:46.945Z,100.00
2022-09-24T05:15:18.496Z,100.00
2022-09-24T05:17:50.237Z,100.00
2022-09-24T05:20:23.923Z,100.00
2022-09-24T05:22:53.439Z,100.00
2022-09-24T05:25:24.479Z,100.00
2022-09-24T05:27:53.437Z,100.00
2022-09-24T05:30:25.064Z,100.00
2022-09-24T05:32:53.633Z,100.00
2022-09-24T05:35:23.408Z,100.00
2022-09-24T05:37:53.880Z,100.00
2022-09-24T05:40:41.260Z,100.00
2022-09-24T05:43:09.732Z,100.00
2022-09-24T05:45:40.377Z,100.00
2022-09-24T05:48:08.537Z,100.00
2022-09-24T05:50:36.734Z,100.00
2022-09-24T05:53:06.393Z,100.00
2022-09-24T05:55:37.019Z,100.00
2022-09-24T05:58:11.797Z,100.00
2022-09-24T06:00:42.616Z,100.00
2022-09-24T06:03:15.043Z,100.00
2022-09-24T06:05:47.295Z,100.00
2022-09-24T06:08:16.888Z,100.00
2022-09-24T06:10:47.712Z,100.00
2022-09-24T06:13:19.409Z,100.00
2022-09-24T06:15:49.444Z,100.00
2022-09-24T06:18:19.818Z,100.00
2022-09-24T06:20:49.333Z,100.00
2022-09-24T06:23:18.264Z,100.00
2022-09-24T06:25:51.179Z,100.00
2022-09-24T06:28:19.608Z,100.00
2022-09-24T06:30:49.624Z,100.00
2022-09-24T06:33:18.052Z,100.00
2022-09-24T06:35:46.721Z,100.00
2022-09-24T06:38:17.180Z,100.00
2022-09-24T06:40:47.375Z,100.00
2022-09-24T06:43:18.279Z,100.00
2022-09-24T06:45:46.994Z,100.00
2022-09-24T06:48:19.029Z,100.00
2022-09-24T06:50:47.828Z,100.00
2022-09-24T06:53:16.880Z,100.00
2022-09-24T06:55:46.832Z,100.00
2022-09-24T06:58:17.649Z,100.00
2022-09-24T07:00:59.331Z,100.00
2022-09-24T07:03:31.517Z,100.00
2022-09-24T07:06:03.681Z,100.00
2022-09-24T07:08:32.292Z,100.00
2022-09-24T07:11:00.902Z,100.00
2022-09-24T07:13:29.975Z,100.00
2022-09-24T07:15:58.352Z,100.00
2022-09-24T07:18:26.553Z,100.00
2022-09-24T07:20:57.580Z,100.00
2022-09-24T07:23:29.616Z,100.00
2022-09-24T07:25:58.522Z,100.00
2022-09-24T07:28:27.325Z,100.00
2022-09-24T07:31:00.548Z,100.00
2022-09-24T07:33:29.986Z,100.00
2022-09-24T07:36:02.361Z,100.00
2022-09-24T07:38:31.177Z,100.00
2022-09-24T07:41:00.829Z,100.00
2022-09-24T07:43:29.343Z,100.00
2022-09-24T07:45:58.450Z,100.00
2022-09-24T07:48:27.044Z,100.00
2022-09-24T07:50:57.826Z,100.00
2022-09-24T07:53:27.997Z,100.00
2022-09-24T07:56:01.418Z,100.00
2022-09-24T07:58:30.133Z,100.00
2022-09-24T08:00:59.258Z,100.00
2022-09-24T08:03:33.331Z,100.00
2022-09-24T08:06:03.041Z,100.00
2022-09-24T08:08:33.440Z,100.00
2022-09-24T08:11:05.006Z,100.00
2022-09-24T08:13:34.539Z,100.00
2022-09-24T08:16:06.948Z,100.00
2022-09-24T08:18:35.823Z,100.00
2022-09-24T08:21:06.793Z,100.00
2022-09-24T08:23:38.347Z,100.00
2022-09-24T08:26:10.203Z,100.00
2022-09-24T08:28:40.122Z,100.00
2022-09-24T08:31:13.155Z,100.00
2022-09-24T08:33:42.241Z,100.00
2022-09-24T08:36:13.230Z,100.00
2022-09-24T08:38:43.608Z,100.00
2022-09-24T08:41:27.224Z,100.00
2022-09-24T08:44:05.786Z,100.00
2022-09-24T08:46:56.278Z,100.00
2022-09-24T08:49:32.569Z,100.00
2022-09-24T08:52:24.738Z,100.00
2022-09-24T08:54:56.150Z,100.00
2022-09-24T08:57:24.653Z,100.00
2022-09-24T08:59:54.934Z,100.00
2022-09-24T09:02:38.717Z,100.00
2022-09-24T09:05:15.825Z,100.00
2022-09-24T09:07:51.729Z,100.00
2022-09-24T09:10:29.239Z,100.00
2022-09-24T09:13:03.383Z,100.00
2022-09-24T09:15:35.618Z,100.00
2022-09-24T09:18:13.120Z,100.00
2022-09-24T09:20:43.833Z,100.00
2022-09-24T09:23:20.050Z,100.00
2022-09-24T09:25:54.244Z,100.00
2022-09-24T09:28:22.425Z,100.00
2022-09-24T09:31:07.193Z,100.00
2022-09-24T09:33:59.906Z,100.00
2022-09-24T09:36:43.450Z,100.00
2022-09-24T09:39:24.824Z,100.00
2022-09-24T09:42:04.018Z,100.00
2022-09-24T09:44:39.310Z,100.00
2022-09-24T09:47:21.568Z,100.00
2022-09-24T09:49:53.697Z,100.00
2022-09-24T09:52:25.084Z,100.00
2022-09-24T09:54:53.693Z,100.00
2022-09-24T09:57:28.785Z,100.00
2022-09-24T09:59:57.212Z,100.00
2022-09-24T10:02:28.851Z,100.00
2022-09-24T10:04:59.732Z,100.00
2022-09-24T10:07:28.116Z,100.00
2022-09-24T10:10:05.661Z,100.00
2022-09-24T10:12:38.270Z,100.00
2022-09-24T10:15:20.065Z,100.00
2022-09-24T10:17:54.353Z,100.00
2022-09-24T10:20:28.172Z,100.00
2022-09-24T10:23:01.999Z,100.00
2022-09-24T10:25:33.202Z,100.00
2022-09-24T10:28:22.720Z,100.00
2022-09-24T10:30:58.604Z,100.00
2022-09-24T10:33:28.272Z,100.00
2022-09-24T10:36:08.167Z,100.00
2022-09-24T10:38:36.427Z,100.00
2022-09-24T10:41:15.985Z,99.22
2022-09-24T10:43:58.993Z,99.78
2022-09-24T10:46:42.762Z,88.16
2022-09-24T10:49:23.833Z,83.53
2022-09-24T10:52:02.304Z,85.66
2022-09-24T10:54:45.344Z,93.99
2022-09-24T10:57:25.475Z,91.65
2022-09-24T11:00:05.863Z,94.23
2022-09-24T11:03:09.820Z,99.38
2022-09-24T11:05:42.917Z,100.00
2022-09-24T11:08:22.789Z,100.00
2022-09-24T11:11:18.015Z,98.53
2022-09-24T11:13:57.173Z,95.09
2022-09-24T11:16:51.784Z,88.21
2022-09-24T11:19:33.973Z,79.34
2022-09-24T11:22:13.109Z,78.96
2022-09-24T11:25:07.888Z,83.08
2022-09-24T11:27:52.949Z,79.54
2022-09-24T11:30:25.355Z,73.87
2022-09-24T11:33:22.843Z,68.50
2022-09-24T11:36:14.411Z,69.68
2022-09-24T11:39:02.178Z,66.02
2022-09-24T11:41:41.740Z,64.53
2022-09-24T11:44:41.764Z,68.26
2022-09-24T11:47:26.378Z,75.69
2022-09-24T11:50:15.769Z,73.78
2022-09-24T11:52:49.947Z,72.57
2022-09-24T11:55:24.222Z,68.85
2022-09-24T11:57:58.548Z,64.83
2022-09-24T12:00:32.822Z,64.96
2022-09-24T12:03:05.436Z,65.32
2022-09-24T12:05:39.851Z,59.53
2022-09-24T12:08:14.651Z,58.08
2022-09-24T12:10:47.346Z,54.60
2022-09-24T12:13:20.616Z,55.14
2022-09-24T12:15:54.355Z,53.29
2022-09-24T12:18:27.551Z,51.43
2022-09-24T12:21:07.357Z,52.74
2022-09-24T12:23:41.211Z,54.92
2022-09-24T12:26:11.861Z,52.06
2022-09-24T12:29:05.752Z,49.49
2022-09-24T12:32:01.036Z,47.92
2022-09-24T12:34:39.046Z,47.39
2022-09-24T12:37:12.263Z,47.68
2022-09-24T12:39:49.707Z,50.86
2022-09-24T12:42:21.993Z,49.45
2022-09-24T12:44:56.172Z,48.96
2022-09-24T12:47:26.953Z,50.36
2022-09-24T12:50:00.014Z,48.20
2022-09-24T12:52:45.286Z,48.01
2022-09-24T12:55:22.277Z,46.17
2022-09-24T12:57:56.363Z,45.79
2022-09-24T13:00:42.600Z,45.90
2022-09-24T13:03:33.700Z,45.76
2022-09-24T13:06:02.449Z,43.24
2022-09-24T13:08:46.014Z,39.47
2022-09-24T13:11:30.249Z,37.60
2022-09-24T13:14:19.542Z,38.97
2022-09-24T13:16:50.851Z,38.75
2022-09-24T13:19:36.637Z,39.30
2022-09-24T13:22:05.212Z,39.89
2022-09-24T13:24:46.719Z,40.45
2022-09-24T13:27:38.073Z,40.21
2022-09-24T13:30:18.142Z,40.05
2022-09-24T13:32:52.836Z,39.49
2022-09-24T13:35:26.110Z,39.39
2022-09-24T13:38:02.937Z,38.52
2022-09-24T13:40:41.128Z,37.68
2022-09-24T13:43:19.769Z,39.63
2022-09-24T13:45:48.763Z,43.82
2022-09-24T13:48:26.814Z,43.60
2022-09-24T13:50:55.731Z,42.08
2022-09-24T13:53:31.097Z,43.06
2022-09-24T13:56:06.038Z,45.23
2022-09-24T13:58:36.299Z,46.36
2022-09-24T14:01:11.880Z,47.70
2022-09-24T14:03:41.916Z,50.72
2022-09-24T14:06:16.379Z,49.04
2022-09-24T14:08:47.604Z,48.96
2022-09-24T14:11:21.031Z,47.61
2022-09-24T14:13:49.814Z,46.16
2022-09-24T14:16:20.000Z,46.64
2022-09-24T14:18:48.863Z,46.58
2022-09-24T14:21:24.041Z,46.16
2022-09-24T14:23:56.150Z,45.52
2022-09-24T14:26:30.294Z,47.10
2022-09-24T14:29:01.671Z,49.77
2022-09-24T14:31:32.293Z,51.67
2022-09-24T14:34:06.156Z,53.15
2022-09-24T14:36:37.612Z,54.18
2022-09-24T14:39:07.319Z,56.61
2022-09-24T14:41:37.984Z,59.04
2022-09-24T14:44:10.013Z,60.31
2022-09-24T14:46:49.057Z,59.85
2022-09-24T14:49:23.441Z,60.07
2022-09-24T14:51:57.530Z,61.51
2022-09-24T14:54:34.100Z,62.25
2022-09-24T14:57:25.816Z,61.32
2022-09-24T14:59:54.545Z,63.24
2022-09-24T15:02:27.693Z,64.21
2022-09-24T15:05:04.865Z,63.44
2022-09-24T15:07:35.511Z,63.74
2022-09-24T15:10:07.086Z,65.47
2022-09-24T15:12:39.225Z,67.10
2022-09-24T15:15:29.129Z,65.26
2022-09-24T15:17:57.748Z,64.30
2022-09-24T15:20:25.937Z,62.35
2022-09-24T15:22:54.320Z,64.19
2022-09-24T15:25:25.359Z,63.36
2022-09-24T15:27:55.145Z,64.11
2022-09-24T15:30:25.972Z,64.56
2022-09-24T15:32:54.015Z,64.64
2022-09-24T15:35:24.325Z,63.81
2022-09-24T15:37:53.114Z,63.54
2022-09-24T15:40:29.548Z,63.26
2022-09-24T15:42:59.308Z,62.44
2022-09-24T15:45:27.431Z,63.13
2022-09-24T15:47:56.426Z,64.13
2022-09-24T15:50:26.327Z,63.87
2022-09-24T15:52:57.029Z,65.05
2022-09-24T15:55:27.022Z,64.51
2022-09-24T15:57:55.653Z,64.41
2022-09-24T16:00:26.377Z,64.83
2022-09-24T16:02:56.604Z,64.31
2022-09-24T16:05:25.316Z,65.15
2022-09-24T16:07:53.983Z,69.09
2022-09-24T16:10:22.912Z,71.35
2022-09-24T16:12:51.112Z,73.08
2022-09-24T16:15:21.810Z,75.52
2022-09-24T16:17:51.886Z,77.85
2022-09-24T16:20:20.704Z,78.19
2022-09-24T16:22:49.050Z,80.02
2022-09-24T16:25:17.470Z,80.20
2022-09-24T16:27:45.931Z,81.44
2022-09-24T16:30:14.497Z,84.13
2022-09-24T16:32:44.253Z,85.35
2022-09-24T16:35:13.824Z,87.25
2022-09-24T16:37:42.539Z,87.72
2022-09-24T16:40:12.275Z,88.78
2022-09-24T16:42:41.687Z,89.87
2022-09-24T16:45:12.663Z,90.85
2022-09-24T16:47:40.817Z,91.00
2022-09-24T16:50:11.022Z,92.13
2022-09-24T16:52:40.807Z,92.43
2022-09-24T16:55:10.490Z,93.67
2022-09-24T16:57:38.960Z,93.55
2022-09-24T17:00:09.341Z,92.89
2022-09-24T17:02:38.400Z,92.17
2022-09-24T17:05:08.174Z,92.67
2022-09-24T17:07:36.834Z,93.13
2022-09-24T17:10:16.132Z,94.02
2022-09-24T17:12:46.502Z,93.92
2022-09-24T17:15:15.905Z,93.87
2022-09-24T17:17:49.927Z,93.44
2022-09-24T17:20:19.420Z,93.29
2022-09-24T17:22:52.684Z,97.16
2022-09-24T17:25:22.191Z,97.65
2022-09-24T17:27:51.839Z,98.18
2022-09-24T17:30:20.331Z,99.14
2022-09-24T17:32:48.900Z,98.38
2022-09-24T17:35:17.978Z,99.49
2022-09-24T17:37:46.680Z,99.25
2022-09-24T17:40:22.947Z,100.00
2022-09-24T17:42:53.591Z,100.00
2022-09-24T17:45:22.879Z,100.00
2022-09-24T17:48:01.230Z,100.00
2022-09-24T17:50:30.052Z,100.00
2022-09-24T17:53:00.160Z,100.00
2022-09-24T17:55:28.555Z,100.00
2022-09-24T17:57:58.086Z,100.00
2022-09-24T18:00:26.171Z,100.00
2022-09-24T18:02:55.751Z,100.00
2022-09-24T18:05:24.171Z,100.00
2022-09-24T18:07:52.578Z,100.00
2022-09-24T18:10:21.117Z,100.00
2022-09-24T18:12:49.220Z,100.00
2022-09-24T18:15:19.032Z,100.00
2022-09-24T18:17:49.504Z,100.00
2022-09-24T18:20:18.255Z,100.00
2022-09-24T18:22:47.341Z,100.00
2022-09-24T18:25:15.632Z,100.00
2022-09-24T18:27:45.586Z,100.00
2022-09-24T18:30:15.869Z,100.00
2022-09-24T18:32:47.828Z,100.00
2022-09-24T18:35:18.106Z,100.00
2022-09-24T18:37:46.788Z,100.00
2022-09-24T18:40:18.552Z,100.00
2022-09-24T18:42:47.359Z,100.00
2022-09-24T18:45:15.629Z,100.00
2022-09-24T18:47:44.019Z,100.00
2022-09-24T18:50:13.987Z,100.00
2022-09-24T18:52:42.309Z,100.00
2022-09-24T18:55:11.936Z,100.00
2022-09-24T18:57:40.116Z,100.00
2022-09-24T19:00:30.825Z,100.00
2022-09-24T19:03:00.034Z,100.00
2022-09-24T19:05:30.340Z,100.00
2022-09-24T19:07:59.380Z,100.00
2022-09-24T19:10:27.519Z,100.00
2022-09-24T19:12:55.812Z,100.00
2022-09-24T19:15:25.964Z,100.00
2022-09-24T19:17:54.362Z,100.00
2022-09-24T19:20:22.613Z,100.00
2022-09-24T19:23:00.282Z,100.00
2022-09-24T19:25:29.159Z,100.00
2022-09-24T19:27:58.095Z,100.00
2022-09-24T19:30:27.805Z,100.00
2022-09-24T19:32:56.228Z,100.00
2022-09-24T19:35:24.634Z,100.00
2022-09-24T19:37:54.740Z,100.00
2022-09-24T19:40:23.601Z,100.00
2022-09-24T19:42:51.781Z,100.00
2022-09-24T19:45:19.948Z,100.00
2022-09-24T19:47:48.886Z,100.00
2022-09-24T19:50:17.987Z,100.00
2022-09-24T19:52:48.995Z,100.00
2022-09-24T19:55:18.982Z,100.00
2022-09-24T19:57:47.194Z,100.00
2022-09-24T20:00:16.455Z,100.00
2022-09-24T20:02:45.081Z,100.00
2022-09-24T20:05:15.881Z,100.00
2022-09-24T20:07:46.049Z,100.00
2022-09-24T20:10:14.719Z,100.00
2022-09-24T20:12:46.805Z,100.00
2022-09-24T20:15:15.241Z,100.00
2022-09-24T20:17:43.586Z,100.00
2022-09-24T20:20:11.995Z,100.00
2022-09-24T20:22:40.308Z,100.00
2022-09-24T20:25:11.857Z,100.00
2022-09-24T20:27:55.478Z,100.00
2022-09-24T20:30:25.274Z,100.00
2022-09-24T20:32:53.711Z,100.00
2022-09-24T20:35:22.036Z,100.00
2022-09-24T20:37:50.295Z,100.00
2022-09-24T20:40:20.458Z,100.00
2022-09-24T20:42:49.451Z,100.00
2022-09-24T20:45:18.043Z,100.00
2022-09-24T20:47:50.021Z,100.00
2022-09-24T20:50:19.509Z,100.00
2022-09-24T20:52:47.988Z,100.00
2022-09-24T20:55:16.806Z,100.00
2022-09-24T20:57:46.181Z,100.00
2022-09-24T21:00:15.587Z,100.00
2022-09-24T21:02:44.630Z,100.00
2022-09-24T21:05:14.657Z,100.00
2022-09-24T21:07:42.907Z,100.00
2022-09-24T21:10:13.209Z,100.00
2022-09-24T21:12:41.651Z,100.00
2022-09-24T21:15:13.925Z,100.00
2022-09-24T21:17:59.460Z,100.00
2022-09-24T21:20:38.175Z,100.00
2022-09-24T21:23:07.660Z,100.00
2022-09-24T21:25:53.950Z,100.00
2022-09-24T21:28:23.137Z,100.00
2022-09-24T21:30:58.296Z,100.00
2022-09-24T21:33:26.805Z,100.00
2022-09-24T21:35:59.017Z,100.00
2022-09-24T21:38:27.381Z,100.00
2022-09-24T21:40:57.568Z,100.00
2022-09-24T21:43:34.467Z,100.00
2022-09-24T21:46:05.216Z,100.00
2022-09-24T21:48:34.583Z,100.00
2022-09-24T21:51:09.295Z,100.00
2022-09-24T21:53:39.335Z,100.00
2022-09-24T21:56:08.810Z,100.00
2022-09-24T21:58:39.172Z,100.00
2022-09-24T22:01:14.191Z,100.00
2022-09-24T22:03:43.262Z,100.00
2022-09-24T22:06:14.441Z,100.00
2022-09-24T22:08:43.324Z,100.00
2022-09-24T22:11:13.559Z,100.00
2022-09-24T22:13:42.663Z,100.00
2022-09-24T22:16:12.317Z,100.00
2022-09-24T22:18:40.879Z,100.00
2022-09-24T22:21:11.332Z,100.00
2022-09-24T22:23:41.764Z,100.00
2022-09-24T22:26:11.513Z,100.00
2022-09-24T22:28:39.764Z,100.00
2022-09-24T22:31:09.660Z,100.00
2022-09-24T22:33:56.174Z,100.00
2022-09-24T22:36:28.704Z,100.00
2022-09-24T22:39:00.405Z,100.00
2022-09-24T22:41:30.074Z,100.00
2022-09-24T22:44:00.232Z,100.00
2022-09-24T22:46:28.771Z,100.00
2022-09-24T22:48:58.146Z,100.00
2022-09-24T22:51:27.903Z,100.00
2022-09-24T22:53:57.859Z,100.00
2022-09-24T22:56:27.517Z,100.00
2022-09-24T22:58:57.674Z,100.00
2022-09-24T23:01:28.827Z,100.00
2022-09-24T23:03:57.926Z,100.00
2022-09-24T23:06:26.616Z,100.00
2022-09-24T23:08:56.383Z,100.00
2022-09-24T23:11:28.613Z,100.00
2022-09-24T23:13:58.396Z,100.00
2022-09-24T23:16:28.218Z,100.00
2022-09-24T23:18:58.871Z,100.00
2022-09-24T23:21:30.641Z,100.00
2022-09-24T23:24:00.434Z,100.00
2022-09-24T23:26:31.636Z,100.00
2022-09-24T23:29:01.376Z,100.00
2022-09-24T23:31:31.460Z,100.00
2022-09-24T23:34:01.462Z,100.00
2022-09-24T23:36:32.293Z,100.00
2022-09-24T23:39:01.699Z,100.00
2022-09-24T23:41:33.592Z,100.00
2022-09-24T23:44:03.488Z,100.00
2022-09-24T23:46:34.008Z,100.00
2022-09-24T23:49:02.404Z,100.00
2022-09-24T23:51:30.806Z,100.00
2022-09-24T23:54:00.478Z,100.00
2022-09-24T23:56:29.678Z,100.00
2022-09-24T23:59:01.970Z,100.00
